首页
METAR-TAF:

METAR-TAF

机场 :

伊拉克利翁尼科斯·卡赞察基斯国际机场

伊拉克利翁, 希腊

纬度: 35-20N, 经度: 025-11E, 海拔: 37米

当前天气观测

该预报发布于29分钟前的00:20 UTC
风速5节,风向南转西南
温度 27°C
湿度 74%
气压 1006 hPa
能见度10公里或以上
1500米以下无云,无积雨云

METAR: LGIR 180020Z 21005KT CAVOK 27/22 Q1006 NOSIG

时间: 03:49 (00:49 UTC)

预报

该预报发布于1小时和49分钟前的23:00 UTC
预报有效从18日的 00点(UTC)到 18日的 24点(UTC)
风速10节,风向西南
能见度10公里或以上
少量云层高于3000英尺
成为
从 18日的 04点(UTC)到 18日的 06点(UTC)
风速20节,风向西北
成为
从 18日的 14点(UTC)到 18日的 16点(UTC)
风速10节,风向西北

TAF: LGIR 172300Z 1800/1824 22010KT 9999 FEW030 BECMG 1804/1806 31020KT BECMG 1814/1816 32010KT

超过4000个机场的气象观测和天气预报(METAR&TAF报告)。

可查询的气象台以黄色和红色小点在地图上表示。

将鼠标移到小点上方,可查看气象台名称。

然后点击查看天气观测和预报。

如需切换地图:点击带黑十字的绿色按钮放大地图;点击带横线的绿色按钮缩小地图;或者点击绿色箭头查看邻近地区的地图。


METAR-TAF: